Salt Flat, TX (79847)

6:06 AM MDT on October 01, 2014 (GMT -0600)
APRSWXNET Dellcity TX US | Change Station
CLOSE
Current Station
Personal Weather Station
Location: Salt Flat, TX
Elevation: 3690 ft
Nearby Weather Stations

Elev 3690 ft 31.73 °N, 104.93 °W | Updated 33 minutes ago

Clear
Clear
55 °F
Feels Like 55 °F
N
0
Wind Variable Wind from North
Gusts 0.0 mph

Today
High -- | Low -- °F
--% Chance of Precip.
Yesterday
High -- | Low -- °F
Precip. -- in
6:54 AM 6:45 PM
Waxing Crescent, 47% visible
Pressure 29.77 in
Visibility 10.0 miles
Clouds Clear
Dew Point 48 °F
Humidity 76%
Rainfall 0.00 in
Snow Depth Not available.
UV 0 out of 12
Pollen 7.50 out of 12
Air Quality Not available.
Flu Activity Not available.
METAR KGDP 011151Z AUTO 23016KT 10SM CLR 14/04 A2997 RMK AO2 SLP079 T01390039 10183 20139 53003 $

More Conditions Fewer Conditions

Pressure 29.77 in
Visibility 10.0 miles
Clouds Clear
Dew Point 48 °F
Humidity 76%
Rainfall 0.00 in
Snow Depth Not available.
UV 0 out of 12
Pollen 7.50 out of 12
Air Quality Not available.
Flu Activity Not available.
METAR KGDP 011151Z AUTO 23016KT 10SM CLR 14/04 A2997 RMK AO2 SLP079 T01390039 10183 20139 53003 $

More Conditions Fewer Conditions

10-Day Weather Forecast

Almanac

Astronomy

Oct. 01, 2014 Rise Set
Actual Time 6:54 AM MDT 6:45 PM MDT
Civil Twilight 6:29 AM MDT 7:09 PM MDT
Nautical Twilight 6:01 AM MDT 7:37 PM MDT
Astronomical Twilight 5:33 AM MDT 8:05 PM MDT
Moon 1:42 PM MDT No Moon Set
Length of Visible Light 12h 39m
Length of Day
11h 50m
Tomorrow will be 1m 55s shorter.
Waxing Crescent, 47% of the Moon is Illuminated
Today
Waxing Crescent
Oct 1
First Quarter
Oct 8
Full
Oct 15
Last Quarter
Oct 23
New

Today's Extremes

State Highs State Lows

Community

WunderPhotos

Upload Photos

1,757,914 photos uploaded!

WunderBlogs® & News

Nearby

Snow Depth

Station Depth Elevation
No new snow has been reported.

Earthquake Activity

City Distance Mag. Time & Date
No recent earthquake activity has been reported nearby.
Minimum magnitude displayed is 2.5.

Coastal Water Temperatures

Place Temperature
No Stations Reporting

Nearby Weather Stations